sensor_id;sensor_type;location;lat;lon;timestamp;P1;durP1;ratioP1;P2;durP2;ratioP2
13463;SDS011;6804;48.774;9.174;2024-01-15T00:01:43;11.07;;;6.30;;
13463;SDS011;6804;48.774;9.174;2024-01-15T00:04:12;11.80;;;6.87;;
13463;SDS011;6804;48.774;9.174;2024-01-15T00:06:41;12.30;;;6.70;;
13463;SDS011;6804;48.774;9.174;2024-01-15T00:09:09;12.53;;;6.40;;
13463;SDS011;6804;48.774;9.174;2024-01-15T00:11:36;11.80;;;6.57;;
13463;SDS011;6804;48.774;9.174;2024-01-15T00:14:04;12.07;;;7.27;;
13463;SDS011;6804;48.774;9.174;2024-01-15T00:19:21;11.73;;;6.50;;
13463;SDS011;6804;48.774;9.174;2024-01-15T00:21:51;11.17;;;6.43;;
13463;SDS011;6804;48.774;9.174;2024-01-15T00:24:22;9.47;;;5.77;;
13463;SDS011;6804;48.774;9.174;2024-01-15T00:26:50;10.73;;;6.60;;
13463;SDS011;6804;48.774;9.174;2024-01-15T00:35:03;11.83;;;6.70;;
13463;SDS011;6804;48.774;9.174;2024-01-15T00:37:32;14.50;;;7.00;;
13463;SDS011;6804;48.774;9.174;2024-01-15T00:40:03;12.33;;;6.50;;
13463;SDS011;6804;48.774;9.174;2024-01-15T00:42:31;14.40;;;6.77;;
13463;SDS011;6804;48.774;9.174;2024-01-15T00:44:59;12.17;;;6.73;;
13463;SDS011;6804;48.774;9.174;2024-01-15T00:47:28;15.27;;;7.23;;
13463;SDS011;6804;48.774;9.174;2024-01-15T00:49:57;12.63;;;6.67;;
13463;SDS011;6804;48.774;9.174;2024-01-15T00:55:14;10.07;;;6.27;;
13463;SDS011;6804;48.774;9.174;2024-01-15T00:57:47;13.57;;;6.83;;
13463;SDS011;6804;48.774;9.174;2024-01-15T01:00:14;12.90;;;6.47;;
13463;SDS011;6804;48.774;9.174;2024-01-15T01:02:44;12.67;;;6.27;;
13463;SDS011;6804;48.774;9.174;2024-01-15T01:08:04;11.50;;;6.00;;
13463;SDS011;6804;48.774;9.174;2024-01-15T01:10:32;11.23;;;6.03;;
13463;SDS011;6804;48.774;9.174;2024-01-15T01:13:05;12.10;;;6.47;;
13463;SDS011;6804;48.774;9.174;2024-01-15T01:15:37;12.43;;;6.57;;
13463;SDS011;6804;48.774;9.174;2024-01-15T01:18:07;11.57;;;6.80;;
13463;SDS011;6804;48.774;9.174;2024-01-15T01:20:36;14.80;;;7.67;;
13463;SDS011;6804;48.774;9.174;2024-01-15T01:26:26;13.27;;;6.43;;
13463;SDS011;6804;48.774;9.174;2024-01-15T01:31:42;10.47;;;6.20;;
13463;SDS011;6804;48.774;9.174;2024-01-15T01:34:15;11.90;;;6.50;;
13463;SDS011;6804;48.774;9.174;2024-01-15T01:36:49;10.50;;;6.30;;
13463;SDS011;6804;48.774;9.174;2024-01-15T01:39:16;12.00;;;6.40;;
13463;SDS011;6804;48.774;9.174;2024-01-15T01:41:45;10.87;;;6.37;;
13463;SDS011;6804;48.774;9.174;2024-01-15T01:44:15;11.07;;;6.00;;
13463;SDS011;6804;48.774;9.174;2024-01-15T01:46:42;11.10;;;6.10;;
13463;SDS011;6804;48.774;9.174;2024-01-15T01:49:10;10.33;;;5.80;;
13463;SDS011;6804;48.774;9.174;2024-01-15T01:51:45;11.47;;;6.90;;
13463;SDS011;6804;48.774;9.174;2024-01-15T01:54:16;11.27;;;6.20;;
13463;SDS011;6804;48.774;9.174;2024-01-15T01:56:47;12.07;;;6.23;;
13463;SDS011;6804;48.774;9.174;2024-01-15T01:59:21;11.97;;;6.60;;
13463;SDS011;6804;48.774;9.174;2024-01-15T02:01:56;13.70;;;6.70;;
13463;SDS011;6804;48.774;9.174;2024-01-15T02:04:28;11.67;;;6.60;;
13463;SDS011;6804;48.774;9.174;2024-01-15T02:06:57;12.30;;;6.83;;
13463;SDS011;6804;48.774;9.174;2024-01-15T02:09:27;11.23;;;6.53;;
13463;SDS011;6804;48.774;9.174;2024-01-15T02:11:58;12.53;;;6.20;;
13463;SDS011;6804;48.774;9.174;2024-01-15T02:14:28;11.30;;;6.03;;
13463;SDS011;6804;48.774;9.174;2024-01-15T02:16:56;11.20;;;6.20;;
13463;SDS011;6804;48.774;9.174;2024-01-15T02:19:23;11.90;;;6.50;;
13463;SDS011;6804;48.774;9.174;2024-01-15T02:21:53;12.53;;;6.07;;
13463;SDS011;6804;48.774;9.174;2024-01-15T02:24:25;12.77;;;5.90;;
13463;SDS011;6804;48.774;9.174;2024-01-15T02:26:58;10.93;;;6.20;;
13463;SDS011;6804;48.774;9.174;2024-01-15T02:29:26;12.07;;;6.57;;
13463;SDS011;6804;48.774;9.174;2024-01-15T02:31:54;11.00;;;6.00;;
13463;SDS011;6804;48.774;9.174;2024-01-15T02:34:22;13.13;;;6.50;;
13463;SDS011;6804;48.774;9.174;2024-01-15T02:36:50;9.70;;;5.27;;
13463;SDS011;6804;48.774;9.174;2024-01-15T02:39:17;11.20;;;5.83;;
13463;SDS011;6804;48.774;9.174;2024-01-15T02:41:46;11.27;;;6.07;;
13463;SDS011;6804;48.774;9.174;2024-01-15T02:44:13;10.47;;;6.23;;
13463;SDS011;6804;48.774;9.174;2024-01-15T02:46:42;10.93;;;6.30;;
13463;SDS011;6804;48.774;9.174;2024-01-15T02:49:18;11.17;;;6.00;;
13463;SDS011;6804;48.774;9.174;2024-01-15T02:51:46;11.53;;;6.10;;
13463;SDS011;6804;48.774;9.174;2024-01-15T02:54:16;11.83;;;5.83;;
13463;SDS011;6804;48.774;9.174;2024-01-15T02:56:48;11.77;;;6.23;;
13463;SDS011;6804;48.774;9.174;2024-01-15T02:59:15;9.67;;;5.93;;
13463;SDS011;6804;48.774;9.174;2024-01-15T03:01:48;9.60;;;5.90;;
13463;SDS011;6804;48.774;9.174;2024-01-15T03:04:18;10.17;;;6.17;;
13463;SDS011;6804;48.774;9.174;2024-01-15T03:06:45;11.27;;;6.03;;
13463;SDS011;6804;48.774;9.174;2024-01-15T03:09:16;14.53;;;6.73;;
13463;SDS011;6804;48.774;9.174;2024-01-15T03:11:43;11.07;;;5.80;;
13463;SDS011;6804;48.774;9.174;2024-01-15T03:14:15;9.83;;;5.90;;
13463;SDS011;6804;48.774;9.174;2024-01-15T03:16:46;9.50;;;6.30;;
13463;SDS011;6804;48.774;9.174;2024-01-15T03:19:13;9.50;;;6.03;;
13463;SDS011;6804;48.774;9.174;2024-01-15T03:21:51;10.70;;;5.83;;
13463;SDS011;6804;48.774;9.174;2024-01-15T03:24:20;12.80;;;6.30;;
13463;SDS011;6804;48.774;9.174;2024-01-15T03:26:47;11.40;;;6.17;;
13463;SDS011;6804;48.774;9.174;2024-01-15T03:29:19;10.67;;;6.30;;
13463;SDS011;6804;48.774;9.174;2024-01-15T03:31:48;10.87;;;5.87;;
13463;SDS011;6804;48.774;9.174;2024-01-15T03:34:16;9.33;;;6.30;;
13463;SDS011;6804;48.774;9.174;2024-01-15T03:36:43;11.13;;;6.30;;
13463;SDS011;6804;48.774;9.174;2024-01-15T03:39:11;10.53;;;6.23;;
13463;SDS011;6804;48.774;9.174;2024-01-15T03:41:39;11.80;;;5.80;;
13463;SDS011;6804;48.774;9.174;2024-01-15T03:44:08;10.43;;;5.60;;
13463;SDS011;6804;48.774;9.174;2024-01-15T03:46:38;10.93;;;5.80;;
13463;SDS011;6804;48.774;9.174;2024-01-15T03:49:06;12.23;;;6.03;;
13463;SDS011;6804;48.774;9.174;2024-01-15T03:51:37;11.10;;;6.77;;
13463;SDS011;6804;48.774;9.174;2024-01-15T03:54:06;11.53;;;6.20;;
13463;SDS011;6804;48.774;9.174;2024-01-15T03:56:34;9.60;;;5.63;;
13463;SDS011;6804;48.774;9.174;2024-01-15T03:59:02;11.00;;;5.53;;
13463;SDS011;6804;48.774;9.174;2024-01-15T04:01:29;9.90;;;5.60;;
13463;SDS011;6804;48.774;9.174;2024-01-15T04:04:01;10.63;;;5.60;;
13463;SDS011;6804;48.774;9.174;2024-01-15T04:06:28;12.20;;;5.57;;
13463;SDS011;6804;48.774;9.174;2024-01-15T04:08:55;9.53;;;5.10;;
13463;SDS011;6804;48.774;9.174;2024-01-15T04:11:29;12.13;;;6.07;;
13463;SDS011;6804;48.774;9.174;2024-01-15T04:13:59;10.83;;;5.97;;
13463;SDS011;6804;48.774;9.174;2024-01-15T04:16:27;10.67;;;5.67;;
13463;SDS011;6804;48.774;9.174;2024-01-15T04:18:54;10.13;;;4.73;;
13463;SDS011;6804;48.774;9.174;2024-01-15T04:21:27;9.13;;;5.30;;
13463;SDS011;6804;48.774;9.174;2024-01-15T04:23:55;10.87;;;5.47;;
13463;SDS011;6804;48.774;9.174;2024-01-15T04:26:26;8.33;;;5.20;;
13463;SDS011;6804;48.774;9.174;2024-01-15T04:28:59;9.73;;;5.23;;
13463;SDS011;6804;48.774;9.174;2024-01-15T04:31:27;10.17;;;6.00;;
13463;SDS011;6804;48.774;9.174;2024-01-15T04:33:56;9.30;;;5.03;;
13463;SDS011;6804;48.774;9.174;2024-01-15T04:36:31;7.53;;;4.73;;
13463;SDS011;6804;48.774;9.174;2024-01-15T04:39:01;10.63;;;4.93;;
13463;SDS011;6804;48.774;9.174;2024-01-15T04:41:29;8.23;;;5.00;;
13463;SDS011;6804;48.774;9.174;2024-01-15T04:43:57;9.57;;;5.40;;
13463;SDS011;6804;48.774;9.174;2024-01-15T04:49:17;9.00;;;4.90;;
13463;SDS011;6804;48.774;9.174;2024-01-15T04:51:46;9.83;;;5.40;;
13463;SDS011;6804;48.774;9.174;2024-01-15T04:54:23;9.63;;;5.50;;
13463;SDS011;6804;48.774;9.174;2024-01-15T04:56:51;11.83;;;5.33;;
13463;SDS011;6804;48.774;9.174;2024-01-15T04:59:23;10.17;;;5.80;;
13463;SDS011;6804;48.774;9.174;2024-01-15T05:01:50;10.63;;;5.47;;
13463;SDS011;6804;48.774;9.174;2024-01-15T05:04:21;10.27;;;5.63;;
13463;SDS011;6804;48.774;9.174;2024-01-15T05:09:43;8.80;;;5.17;;
13463;SDS011;6804;48.774;9.174;2024-01-15T05:12:11;9.97;;;5.87;;
13463;SDS011;6804;48.774;9.174;2024-01-15T05:14:41;9.10;;;5.37;;
13463;SDS011;6804;48.774;9.174;2024-01-15T05:22:44;9.17;;;5.83;;
13463;SDS011;6804;48.774;9.174;2024-01-15T05:25:12;10.87;;;6.50;;
13463;SDS011;6804;48.774;9.174;2024-01-15T05:30:35;10.07;;;6.10;;
13463;SDS011;6804;48.774;9.174;2024-01-15T05:33:03;10.30;;;5.83;;
13463;SDS011;6804;48.774;9.174;2024-01-15T05:35:32;10.17;;;5.33;;
13463;SDS011;6804;48.774;9.174;2024-01-15T05:38:02;10.20;;;5.90;;
13463;SDS011;6804;48.774;9.174;2024-01-15T05:40:33;10.63;;;6.23;;
13463;SDS011;6804;48.774;9.174;2024-01-15T05:43:00;11.13;;;6.00;;
13463;SDS011;6804;48.774;9.174;2024-01-15T05:45:30;12.37;;;6.77;;
13463;SDS011;6804;48.774;9.174;2024-01-15T05:47:58;11.50;;;6.20;;
13463;SDS011;6804;48.774;9.174;2024-01-15T05:50:25;10.77;;;5.90;;
13463;SDS011;6804;48.774;9.174;2024-01-15T05:52:53;10.87;;;5.67;;
13463;SDS011;6804;48.774;9.174;2024-01-15T05:55:24;10.37;;;5.63;;
13463;SDS011;6804;48.774;9.174;2024-01-15T05:57:52;9.23;;;5.93;;
13463;SDS011;6804;48.774;9.174;2024-01-15T06:00:19;8.60;;;5.40;;
13463;SDS011;6804;48.774;9.174;2024-01-15T06:02:54;10.47;;;6.37;;
13463;SDS011;6804;48.774;9.174;2024-01-15T06:05:25;10.20;;;5.47;;
13463;SDS011;6804;48.774;9.174;2024-01-15T06:07:54;10.93;;;5.70;;
13463;SDS011;6804;48.774;9.174;2024-01-15T06:10:22;10.70;;;5.77;;
13463;SDS011;6804;48.774;9.174;2024-01-15T06:12:51;11.27;;;5.77;;
13463;SDS011;6804;48.774;9.174;2024-01-15T06:15:21;10.13;;;5.53;;
13463;SDS011;6804;48.774;9.174;2024-01-15T06:17:51;9.03;;;5.83;;
13463;SDS011;6804;48.774;9.174;2024-01-15T06:20:24;9.53;;;5.50;;
13463;SDS011;6804;48.774;9.174;2024-01-15T06:22:54;9.13;;;5.60;;
13463;SDS011;6804;48.774;9.174;2024-01-15T06:25:23;12.33;;;6.03;;
13463;SDS011;6804;48.774;9.174;2024-01-15T06:27:54;10.00;;;5.10;;
13463;SDS011;6804;48.774;9.174;2024-01-15T06:30:25;8.50;;;4.90;;
13463;SDS011;6804;48.774;9.174;2024-01-15T06:32:52;8.83;;;4.70;;
13463;SDS011;6804;48.774;9.174;2024-01-15T06:35:22;10.00;;;5.40;;
13463;SDS011;6804;48.774;9.174;2024-01-15T06:37:52;7.93;;;5.17;;
13463;SDS011;6804;48.774;9.174;2024-01-15T06:40:23;9.80;;;5.10;;
13463;SDS011;6804;48.774;9.174;2024-01-15T06:45:57;9.23;;;5.27;;
13463;SDS011;6804;48.774;9.174;2024-01-15T06:48:26;8.73;;;4.90;;
13463;SDS011;6804;48.774;9.174;2024-01-15T06:50:53;10.13;;;6.13;;
13463;SDS011;6804;48.774;9.174;2024-01-15T06:56:11;9.37;;;5.83;;
13463;SDS011;6804;48.774;9.174;2024-01-15T06:58:39;10.03;;;5.87;;
13463;SDS011;6804;48.774;9.174;2024-01-15T07:01:16;8.50;;;5.27;;
13463;SDS011;6804;48.774;9.174;2024-01-15T07:06:36;8.70;;;4.97;;
13463;SDS011;6804;48.774;9.174;2024-01-15T07:09:08;7.57;;;4.90;;
13463;SDS011;6804;48.774;9.174;2024-01-15T07:11:37;9.53;;;5.03;;
13463;SDS011;6804;48.774;9.174;2024-01-15T07:14:07;8.27;;;4.47;;
13463;SDS011;6804;48.774;9.174;2024-01-15T07:16:38;7.03;;;4.30;;
13463;SDS011;6804;48.774;9.174;2024-01-15T07:19:06;7.93;;;4.90;;
13463;SDS011;6804;48.774;9.174;2024-01-15T07:24:23;7.77;;;4.30;;
13463;SDS011;6804;48.774;9.174;2024-01-15T07:32:36;7.50;;;4.37;;
13463;SDS011;6804;48.774;9.174;2024-01-15T07:35:07;6.30;;;4.33;;
13463;SDS011;6804;48.774;9.174;2024-01-15T07:37:35;10.70;;;4.97;;
13463;SDS011;6804;48.774;9.174;2024-01-15T07:40:03;7.50;;;5.10;;
13463;SDS011;6804;48.774;9.174;2024-01-15T07:42:41;10.30;;;5.00;;
13463;SDS011;6804;48.774;9.174;2024-01-15T07:50:45;7.80;;;5.13;;
13463;SDS011;6804;48.774;9.174;2024-01-15T07:53:15;8.83;;;4.90;;
13463;SDS011;6804;48.774;9.174;2024-01-15T07:55:46;8.53;;;5.57;;
13463;SDS011;6804;48.774;9.174;2024-01-15T07:58:16;7.70;;;4.83;;
13463;SDS011;6804;48.774;9.174;2024-01-15T08:00:43;9.73;;;4.93;;
13463;SDS011;6804;48.774;9.174;2024-01-15T08:03:11;8.53;;;4.87;;
13463;SDS011;6804;48.774;9.174;2024-01-15T08:08:36;7.60;;;4.70;;
13463;SDS011;6804;48.774;9.174;2024-01-15T08:11:04;8.37;;;4.53;;
13463;SDS011;6804;48.774;9.174;2024-01-15T08:16:36;7.13;;;4.57;;
13463;SDS011;6804;48.774;9.174;2024-01-15T08:19:06;9.70;;;5.40;;
13463;SDS011;6804;48.774;9.174;2024-01-15T08:21:35;8.97;;;4.70;;
13463;SDS011;6804;48.774;9.174;2024-01-15T08:24:05;7.80;;;4.60;;
13463;SDS011;6804;48.774;9.174;2024-01-15T08:26:33;8.77;;;4.83;;
13463;SDS011;6804;48.774;9.174;2024-01-15T08:29:04;7.63;;;4.80;;
13463;SDS011;6804;48.774;9.174;2024-01-15T08:31:38;9.77;;;4.93;;
13463;SDS011;6804;48.774;9.174;2024-01-15T08:34:06;7.33;;;4.83;;
13463;SDS011;6804;48.774;9.174;2024-01-15T08:36:36;7.77;;;4.80;;
13463;SDS011;6804;48.774;9.174;2024-01-15T08:39:07;6.67;;;4.47;;
13463;SDS011;6804;48.774;9.174;2024-01-15T08:41:36;8.60;;;5.20;;
13463;SDS011;6804;48.774;9.174;2024-01-15T08:46:54;8.27;;;5.13;;
13463;SDS011;6804;48.774;9.174;2024-01-15T08:49:22;9.63;;;4.90;;
13463;SDS011;6804;48.774;9.174;2024-01-15T08:51:53;6.50;;;4.03;;
13463;SDS011;6804;48.774;9.174;2024-01-15T08:54:24;6.03;;;3.93;;
13463;SDS011;6804;48.774;9.174;2024-01-15T08:56:59;5.70;;;3.60;;
13463;SDS011;6804;48.774;9.174;2024-01-15T08:59:28;8.17;;;4.47;;
13463;SDS011;6804;48.774;9.174;2024-01-15T09:01:58;8.37;;;4.00;;
13463;SDS011;6804;48.774;9.174;2024-01-15T09:04:26;9.30;;;4.53;;
13463;SDS011;6804;48.774;9.174;2024-01-15T09:06:59;6.73;;;3.63;;
13463;SDS011;6804;48.774;9.174;2024-01-15T09:09:27;5.47;;;3.77;;
13463;SDS011;6804;48.774;9.174;2024-01-15T09:11:57;6.03;;;3.90;;
13463;SDS011;6804;48.774;9.174;2024-01-15T09:14:26;7.30;;;3.67;;
13463;SDS011;6804;48.774;9.174;2024-01-15T09:16:57;6.87;;;3.60;;
13463;SDS011;6804;48.774;9.174;2024-01-15T09:19:29;6.10;;;3.77;;
13463;SDS011;6804;48.774;9.174;2024-01-15T09:21:57;5.33;;;2.97;;
13463;SDS011;6804;48.774;9.174;2024-01-15T09:27:24;5.27;;;3.20;;
13463;SDS011;6804;48.774;9.174;2024-01-15T09:29:58;7.10;;;3.57;;
13463;SDS011;6804;48.774;9.174;2024-01-15T09:32:28;5.20;;;3.80;;
13463;SDS011;6804;48.774;9.174;2024-01-15T09:34:59;4.10;;;2.70;;
13463;SDS011;6804;48.774;9.174;2024-01-15T09:37:30;5.90;;;3.07;;
13463;SDS011;6804;48.774;9.174;2024-01-15T09:39:58;7.03;;;3.53;;
13463;SDS011;6804;48.774;9.174;2024-01-15T09:42:28;4.13;;;2.67;;
13463;SDS011;6804;48.774;9.174;2024-01-15T09:44:57;9.10;;;4.23;;
13463;SDS011;6804;48.774;9.174;2024-01-15T09:47:27;4.77;;;2.97;;
13463;SDS011;6804;48.774;9.174;2024-01-15T09:49:58;3.97;;;2.80;;
13463;SDS011;6804;48.774;9.174;2024-01-15T09:52:31;6.77;;;3.43;;
13463;SDS011;6804;48.774;9.174;2024-01-15T09:55:01;8.03;;;4.17;;
13463;SDS011;6804;48.774;9.174;2024-01-15T09:57:33;5.20;;;3.13;;
13463;SDS011;6804;48.774;9.174;2024-01-15T10:00:02;6.60;;;3.50;;
13463;SDS011;6804;48.774;9.174;2024-01-15T10:02:39;5.63;;;3.17;;
13463;SDS011;6804;48.774;9.174;2024-01-15T10:05:10;5.03;;;3.20;;
13463;SDS011;6804;48.774;9.174;2024-01-15T10:07:42;6.63;;;3.37;;
13463;SDS011;6804;48.774;9.174;2024-01-15T10:10:19;5.50;;;3.53;;
13463;SDS011;6804;48.774;9.174;2024-01-15T10:12:51;4.47;;;3.00;;
13463;SDS011;6804;48.774;9.174;2024-01-15T10:15:21;5.90;;;3.27;;
13463;SDS011;6804;48.774;9.174;2024-01-15T10:17:51;10.23;;;3.87;;
13463;SDS011;6804;48.774;9.174;2024-01-15T10:20:19;6.20;;;3.80;;
13463;SDS011;6804;48.774;9.174;2024-01-15T10:22:49;5.80;;;3.77;;
13463;SDS011;6804;48.774;9.174;2024-01-15T10:25:18;7.97;;;3.60;;
13463;SDS011;6804;48.774;9.174;2024-01-15T10:28:03;6.37;;;3.60;;
13463;SDS011;6804;48.774;9.174;2024-01-15T10:30:32;6.57;;;3.33;;
13463;SDS011;6804;48.774;9.174;2024-01-15T10:33:00;3.83;;;2.80;;
13463;SDS011;6804;48.774;9.174;2024-01-15T10:35:32;6.33;;;3.40;;
13463;SDS011;6804;48.774;9.174;2024-01-15T10:38:00;4.60;;;3.10;;
13463;SDS011;6804;48.774;9.174;2024-01-15T10:40:31;4.60;;;3.00;;
13463;SDS011;6804;48.774;9.174;2024-01-15T10:43:01;6.03;;;3.20;;
13463;SDS011;6804;48.774;9.174;2024-01-15T10:45:31;5.57;;;2.90;;
13463;SDS011;6804;48.774;9.174;2024-01-15T10:48:00;5.93;;;3.10;;
13463;SDS011;6804;48.774;9.174;2024-01-15T10:50:29;3.50;;;2.50;;
13463;SDS011;6804;48.774;9.174;2024-01-15T10:53:01;5.83;;;3.33;;
13463;SDS011;6804;48.774;9.174;2024-01-15T10:55:31;5.60;;;3.30;;
13463;SDS011;6804;48.774;9.174;2024-01-15T10:58:02;5.17;;;2.80;;
13463;SDS011;6804;48.774;9.174;2024-01-15T11:00:33;6.43;;;3.40;;
13463;SDS011;6804;48.774;9.174;2024-01-15T11:03:03;5.50;;;3.07;;
13463;SDS011;6804;48.774;9.174;2024-01-15T11:05:33;6.23;;;3.40;;
13463;SDS011;6804;48.774;9.174;2024-01-15T11:08:05;5.50;;;3.13;;
13463;SDS011;6804;48.774;9.174;2024-01-15T11:10:40;5.77;;;3.47;;
13463;SDS011;6804;48.774;9.174;2024-01-15T11:13:15;5.70;;;3.03;;
13463;SDS011;6804;48.774;9.174;2024-01-15T11:16:01;5.27;;;3.27;;
13463;SDS011;6804;48.774;9.174;2024-01-15T11:18:32;5.17;;;3.03;;
13463;SDS011;6804;48.774;9.174;2024-01-15T11:21:22;4.97;;;3.10;;
13463;SDS011;6804;48.774;9.174;2024-01-15T11:23:54;4.57;;;3.10;;
13463;SDS011;6804;48.774;9.174;2024-01-15T11:26:32;6.23;;;3.57;;
13463;SDS011;6804;48.774;9.174;2024-01-15T11:29:07;7.87;;;4.27;;
13463;SDS011;6804;48.774;9.174;2024-01-15T11:37:24;6.33;;;3.73;;
13463;SDS011;6804;48.774;9.174;2024-01-15T11:39:56;6.83;;;4.13;;
13463;SDS011;6804;48.774;9.174;2024-01-15T11:42:34;4.87;;;3.40;;
13463;SDS011;6804;48.774;9.174;2024-01-15T11:45:04;8.37;;;4.67;;
13463;SDS011;6804;48.774;9.174;2024-01-15T11:47:45;8.00;;;4.37;;
13463;SDS011;6804;48.774;9.174;2024-01-15T11:50:41;6.30;;;3.57;;
13463;SDS011;6804;48.774;9.174;2024-01-15T11:53:15;6.60;;;3.87;;
13463;SDS011;6804;48.774;9.174;2024-01-15T11:55:52;5.53;;;4.23;;
13463;SDS011;6804;48.774;9.174;2024-01-15T11:58:24;7.27;;;4.00;;
13463;SDS011;6804;48.774;9.174;2024-01-15T12:00:58;6.07;;;4.07;;
13463;SDS011;6804;48.774;9.174;2024-01-15T12:03:31;6.20;;;3.73;;
13463;SDS011;6804;48.774;9.174;2024-01-15T12:06:00;6.40;;;3.90;;
13463;SDS011;6804;48.774;9.174;2024-01-15T12:11:06;6.23;;;3.50;;
13463;SDS011;6804;48.774;9.174;2024-01-15T12:13:41;5.90;;;3.97;;
13463;SDS011;6804;48.774;9.174;2024-01-15T12:16:11;5.63;;;3.57;;
13463;SDS011;6804;48.774;9.174;2024-01-15T12:21:29;5.87;;;3.70;;
13463;SDS011;6804;48.774;9.174;2024-01-15T12:26:50;8.23;;;4.60;;
13463;SDS011;6804;48.774;9.174;2024-01-15T12:29:20;4.87;;;3.57;;
13463;SDS011;6804;48.774;9.174;2024-01-15T12:31:57;6.13;;;3.50;;
13463;SDS011;6804;48.774;9.174;2024-01-15T12:37:13;5.97;;;4.20;;
13463;SDS011;6804;48.774;9.174;2024-01-15T12:39:43;6.83;;;4.17;;
13463;SDS011;6804;48.774;9.174;2024-01-15T12:45:06;5.30;;;3.87;;
13463;SDS011;6804;48.774;9.174;2024-01-15T12:47:43;5.93;;;4.13;;
13463;SDS011;6804;48.774;9.174;2024-01-15T12:50:12;5.30;;;3.90;;
13463;SDS011;6804;48.774;9.174;2024-01-15T12:52:42;6.30;;;3.97;;
13463;SDS011;6804;48.774;9.174;2024-01-15T12:57:46;7.33;;;3.87;;
13463;SDS011;6804;48.774;9.174;2024-01-15T13:00:15;7.27;;;4.30;;
13463;SDS011;6804;48.774;9.174;2024-01-15T13:05:57;6.77;;;4.03;;
13463;SDS011;6804;48.774;9.174;2024-01-15T13:11:11;6.63;;;3.70;;
13463;SDS011;6804;48.774;9.174;2024-01-15T13:13:39;5.80;;;3.13;;
13463;SDS011;6804;48.774;9.174;2024-01-15T13:16:10;7.23;;;3.73;;
13463;SDS011;6804;48.774;9.174;2024-01-15T13:18:38;5.27;;;3.17;;
13463;SDS011;6804;48.774;9.174;2024-01-15T13:21:07;5.13;;;3.20;;
13463;SDS011;6804;48.774;9.174;2024-01-15T13:23:35;6.03;;;3.40;;
13463;SDS011;6804;48.774;9.174;2024-01-15T13:26:05;6.30;;;3.40;;
13463;SDS011;6804;48.774;9.174;2024-01-15T13:28:36;5.73;;;3.43;;
13463;SDS011;6804;48.774;9.174;2024-01-15T13:31:06;5.43;;;2.97;;
13463;SDS011;6804;48.774;9.174;2024-01-15T13:36:24;5.07;;;3.23;;
13463;SDS011;6804;48.774;9.174;2024-01-15T13:38:58;5.00;;;2.93;;
13463;SDS011;6804;48.774;9.174;2024-01-15T13:41:29;3.27;;;2.23;;
13463;SDS011;6804;48.774;9.174;2024-01-15T13:43:57;4.63;;;2.80;;
13463;SDS011;6804;48.774;9.174;2024-01-15T13:46:26;6.13;;;3.07;;
13463;SDS011;6804;48.774;9.174;2024-01-15T13:48:54;4.37;;;3.10;;
13463;SDS011;6804;48.774;9.174;2024-01-15T13:51:24;7.27;;;2.87;;
13463;SDS011;6804;48.774;9.174;2024-01-15T13:53:59;3.13;;;2.17;;
13463;SDS011;6804;48.774;9.174;2024-01-15T13:56:29;4.97;;;2.70;;
13463;SDS011;6804;48.774;9.174;2024-01-15T13:58:59;5.93;;;3.00;;
13463;SDS011;6804;48.774;9.174;2024-01-15T14:01:30;7.23;;;3.07;;
13463;SDS011;6804;48.774;9.174;2024-01-15T14:04:00;5.17;;;2.70;;
13463;SDS011;6804;48.774;9.174;2024-01-15T14:06:32;7.37;;;3.03;;
13463;SDS011;6804;48.774;9.174;2024-01-15T14:09:03;5.57;;;2.70;;
13463;SDS011;6804;48.774;9.174;2024-01-15T14:11:38;5.20;;;2.70;;
13463;SDS011;6804;48.774;9.174;2024-01-15T14:14:06;5.73;;;2.30;;
13463;SDS011;6804;48.774;9.174;2024-01-15T14:16:37;3.07;;;2.73;;
13463;SDS011;6804;48.774;9.174;2024-01-15T14:19:07;4.27;;;2.20;;
13463;SDS011;6804;48.774;9.174;2024-01-15T14:21:38;4.23;;;2.60;;
13463;SDS011;6804;48.774;9.174;2024-01-15T14:24:06;4.03;;;3.13;;
13463;SDS011;6804;48.774;9.174;2024-01-15T14:29:24;4.30;;;2.47;;
13463;SDS011;6804;48.774;9.174;2024-01-15T14:31:53;4.03;;;2.50;;
13463;SDS011;6804;48.774;9.174;2024-01-15T14:34:22;4.83;;;2.30;;
13463;SDS011;6804;48.774;9.174;2024-01-15T14:36:56;2.70;;;2.30;;
13463;SDS011;6804;48.774;9.174;2024-01-15T14:39:29;2.80;;;2.47;;
13463;SDS011;6804;48.774;9.174;2024-01-15T14:42:00;2.80;;;2.20;;
13463;SDS011;6804;48.774;9.174;2024-01-15T14:44:29;3.30;;;2.53;;
13463;SDS011;6804;48.774;9.174;2024-01-15T14:47:00;4.67;;;3.20;;
13463;SDS011;6804;48.774;9.174;2024-01-15T14:49:28;3.33;;;2.60;;
13463;SDS011;6804;48.774;9.174;2024-01-15T14:51:58;3.60;;;2.77;;
13463;SDS011;6804;48.774;9.174;2024-01-15T14:54:29;3.83;;;3.07;;
13463;SDS011;6804;48.774;9.174;2024-01-15T14:56:58;3.40;;;2.93;;
13463;SDS011;6804;48.774;9.174;2024-01-15T14:59:27;7.00;;;2.90;;
13463;SDS011;6804;48.774;9.174;2024-01-15T15:01:55;5.03;;;3.20;;
13463;SDS011;6804;48.774;9.174;2024-01-15T15:04:26;6.03;;;3.37;;
13463;SDS011;6804;48.774;9.174;2024-01-15T15:06:55;5.03;;;3.40;;
13463;SDS011;6804;48.774;9.174;2024-01-15T15:09:27;5.00;;;3.60;;
13463;SDS011;6804;48.774;9.174;2024-01-15T15:11:57;3.80;;;3.20;;
13463;SDS011;6804;48.774;9.174;2024-01-15T15:14:25;5.43;;;4.17;;
13463;SDS011;6804;48.774;9.174;2024-01-15T15:16:53;5.97;;;4.20;;
13463;SDS011;6804;48.774;9.174;2024-01-15T15:19:23;7.53;;;4.90;;
13463;SDS011;6804;48.774;9.174;2024-01-15T15:21:55;5.70;;;4.17;;
13463;SDS011;6804;48.774;9.174;2024-01-15T15:24:24;4.87;;;3.60;;
13463;SDS011;6804;48.774;9.174;2024-01-15T15:26:56;6.87;;;4.20;;
13463;SDS011;6804;48.774;9.174;2024-01-15T15:29:27;5.07;;;4.40;;
13463;SDS011;6804;48.774;9.174;2024-01-15T15:31:57;6.17;;;4.00;;
13463;SDS011;6804;48.774;9.174;2024-01-15T15:34:25;4.90;;;3.80;;
13463;SDS011;6804;48.774;9.174;2024-01-15T15:36:54;6.33;;;4.13;;
13463;SDS011;6804;48.774;9.174;2024-01-15T15:39:23;9.80;;;5.30;;
13463;SDS011;6804;48.774;9.174;2024-01-15T15:41:56;6.23;;;3.97;;
13463;SDS011;6804;48.774;9.174;2024-01-15T15:44:31;4.40;;;3.37;;
13463;SDS011;6804;48.774;9.174;2024-01-15T15:49:51;6.30;;;3.57;;
13463;SDS011;6804;48.774;9.174;2024-01-15T15:52:22;5.10;;;4.07;;
13463;SDS011;6804;48.774;9.174;2024-01-15T15:54:52;5.90;;;4.43;;
13463;SDS011;6804;48.774;9.174;2024-01-15T15:57:20;5.27;;;4.10;;
13463;SDS011;6804;48.774;9.174;2024-01-15T15:59:52;7.60;;;4.13;;
13463;SDS011;6804;48.774;9.174;2024-01-15T16:02:23;7.20;;;4.23;;
13463;SDS011;6804;48.774;9.174;2024-01-15T16:04:50;5.87;;;4.53;;
13463;SDS011;6804;48.774;9.174;2024-01-15T16:09:55;5.53;;;4.20;;
13463;SDS011;6804;48.774;9.174;2024-01-15T16:12:28;6.53;;;4.60;;
13463;SDS011;6804;48.774;9.174;2024-01-15T16:15:00;6.07;;;4.07;;
13463;SDS011;6804;48.774;9.174;2024-01-15T16:17:31;4.37;;;3.40;;
13463;SDS011;6804;48.774;9.174;2024-01-15T16:19:59;4.90;;;3.80;;
13463;SDS011;6804;48.774;9.174;2024-01-15T16:25:20;7.63;;;3.90;;
13463;SDS011;6804;48.774;9.174;2024-01-15T16:27:51;6.00;;;3.83;;
13463;SDS011;6804;48.774;9.174;2024-01-15T16:30:18;6.27;;;4.23;;
13463;SDS011;6804;48.774;9.174;2024-01-15T16:32:49;6.13;;;3.60;;
13463;SDS011;6804;48.774;9.174;2024-01-15T16:35:24;6.00;;;4.53;;
13463;SDS011;6804;48.774;9.174;2024-01-15T16:37:52;4.87;;;3.67;;
13463;SDS011;6804;48.774;9.174;2024-01-15T16:40:22;5.43;;;3.83;;
13463;SDS011;6804;48.774;9.174;2024-01-15T16:42:52;7.03;;;3.80;;
13463;SDS011;6804;48.774;9.174;2024-01-15T16:45:23;5.87;;;3.63;;
13463;SDS011;6804;48.774;9.174;2024-01-15T16:47:53;7.10;;;3.63;;
13463;SDS011;6804;48.774;9.174;2024-01-15T16:50:24;4.17;;;3.27;;
13463;SDS011;6804;48.774;9.174;2024-01-15T16:52:54;4.47;;;3.20;;
13463;SDS011;6804;48.774;9.174;2024-01-15T16:55:24;6.27;;;3.70;;
13463;SDS011;6804;48.774;9.174;2024-01-15T16:57:53;4.53;;;3.10;;
13463;SDS011;6804;48.774;9.174;2024-01-15T17:00:23;4.77;;;3.37;;
13463;SDS011;6804;48.774;9.174;2024-01-15T17:02:53;6.27;;;3.93;;
13463;SDS011;6804;48.774;9.174;2024-01-15T17:05:26;4.50;;;3.50;;
13463;SDS011;6804;48.774;9.174;2024-01-15T17:08:04;5.77;;;3.90;;